Time;durP1;ratioP1;P1;durP2;ratioP2;P2;SDS_P1;SDS_P2;PMS_P1;PMS_P2;Temp;Humidity;BMP_temperature;BMP_pressure;BME280_temperature;BME280_humidity;BME280_pressure;Samples;Min_cycle;Max_cycle;Signal;HPM_P1;HPM_P2
2022/05/28 00:02:13;;;;;;;4.60;2.58;;;;;;;;;;5046325;28;20024;-85
2022/05/28 00:04:39;;;;;;;4.63;2.33;;;;;;;;;;5050907;28;20466;-85
2022/05/28 00:07:04;;;;;;;8.18;2.13;;;;;;;;;;5068199;28;20033;-84
2022/05/28 00:09:30;;;;;;;6.78;2.50;;;;;;;;;;5065954;28;20032;-85
2022/05/28 00:11:55;;;;;;;5.78;2.55;;;;;;;;;;5067670;28;20021;-87
2022/05/28 00:14:20;;;;;;;8.82;2.50;;;;;;;;;;5089003;28;20016;-87
2022/05/28 00:16:46;;;;;;;5.13;2.50;;;;;;;;;;5086540;28;20023;-89
2022/05/28 00:19:11;;;;;;;5.80;2.30;;;;;;;;;;5085074;28;20074;-85
2022/05/28 00:21:37;;;;;;;8.90;2.60;;;;;;;;;;5068098;28;20055;-87
2022/05/28 00:24:03;;;;;;;7.07;2.92;;;;;;;;;;5079780;28;20051;-85
2022/05/28 00:26:28;;;;;;;6.85;2.50;;;;;;;;;;5068563;28;20055;-85
2022/05/28 00:28:53;;;;;;;8.40;2.60;;;;;;;;;;5051461;28;20024;-83
2022/05/28 00:31:19;;;;;;;8.52;2.60;;;;;;;;;;5048490;28;20040;-84
2022/05/28 00:33:44;;;;;;;13.20;2.65;;;;;;;;;;5071632;28;20020;-84
2022/05/28 00:36:11;;;;;;;7.35;2.25;;;;;;;;;;5065965;28;20039;-86
2022/05/28 00:38:39;;;;;;;4.80;2.20;;;;;;;;;;5051021;28;20381;-85
2022/05/28 00:41:05;;;;;;;4.07;2.42;;;;;;;;;;5062914;28;20470;-85
2022/05/28 00:43:31;;;;;;;6.40;2.60;;;;;;;;;;5066210;28;20036;-85
2022/05/28 00:46:03;;;;;;;7.07;2.42;;;;;;;;;;5069267;28;20059;-85
2022/05/28 00:48:32;;;;;;;10.75;2.42;;;;;;;;;;5061290;28;20686;-82
2022/05/28 00:51:06;;;;;;;5.18;2.33;;;;;;;;;;5060579;28;20697;-84
2022/05/28 00:53:33;;;;;;;7.15;2.40;;;;;;;;;;5061690;28;20112;-85
2022/05/28 00:56:00;;;;;;;7.75;3.10;;;;;;;;;;5060863;28;20371;-82
2022/05/28 00:58:26;;;;;;;3.92;2.22;;;;;;;;;;5068692;28;20099;-85
2022/05/28 01:00:51;;;;;;;6.95;2.35;;;;;;;;;;5060498;28;20055;-82
2022/05/28 01:03:25;;;;;;;5.60;2.67;;;;;;;;;;5066706;28;20031;-82
2022/05/28 01:05:59;;;;;;;7.20;2.45;;;;;;;;;;5065293;28;20013;-83
2022/05/28 01:08:32;;;;;;;7.18;2.35;;;;;;;;;;5062714;28;20021;-85
2022/05/28 01:11:03;;;;;;;5.88;2.50;;;;;;;;;;5046993;28;20382;-86
2022/05/28 01:13:48;;;;;;;4.30;2.55;;;;;;;;;;5068753;28;20542;-88
2022/05/28 01:16:31;;;;;;;10.27;2.35;;;;;;;;;;5062057;28;20093;-83
2022/05/28 01:19:15;;;;;;;7.70;2.72;;;;;;;;;;5062416;28;20013;-83
2022/05/28 01:21:55;;;;;;;8.25;2.35;;;;;;;;;;5063572;28;20087;-84
2022/05/28 01:24:44;;;;;;;5.53;2.35;;;;;;;;;;5056882;28;20446;-84
2022/05/28 01:27:15;;;;;;;7.55;2.30;;;;;;;;;;5058564;28;20016;-84
2022/05/28 01:29:54;;;;;;;7.55;2.33;;;;;;;;;;5063053;28;20025;-81
2022/05/28 01:32:23;;;;;;;9.15;2.42;;;;;;;;;;5042521;28;20016;-82
2022/05/28 01:34:49;;;;;;;8.23;2.35;;;;;;;;;;5060942;28;20016;-82
2022/05/28 01:37:16;;;;;;;15.05;2.50;;;;;;;;;;5056214;28;20020;-85
2022/05/28 01:39:48;;;;;;;5.03;2.40;;;;;;;;;;5060694;28;20012;-85
2022/05/28 01:42:15;;;;;;;13.25;2.80;;;;;;;;;;5066742;28;20021;-82
2022/05/28 01:44:43;;;;;;;7.63;2.25;;;;;;;;;;5060109;28;20106;-84
2022/05/28 01:47:10;;;;;;;5.13;1.90;;;;;;;;;;5070090;28;20020;-82
2022/05/28 01:49:36;;;;;;;5.53;2.20;;;;;;;;;;5033559;28;20017;-83
2022/05/28 01:52:03;;;;;;;7.82;2.17;;;;;;;;;;5053793;28;20665;-82
2022/05/28 01:54:33;;;;;;;4.93;1.85;;;;;;;;;;5069158;28;20029;-84
2022/05/28 01:56:59;;;;;;;4.93;1.95;;;;;;;;;;5065656;28;20017;-83
2022/05/28 01:59:33;;;;;;;7.55;2.20;;;;;;;;;;5053594;28;20142;-82
2022/05/28 02:02:00;;;;;;;7.40;2.38;;;;;;;;;;5071869;28;20025;-83
2022/05/28 02:04:25;;;;;;;6.28;2.17;;;;;;;;;;5072750;28;20470;-82
2022/05/28 02:06:51;;;;;;;6.70;2.22;;;;;;;;;;5052743;28;20028;-84
2022/05/28 02:09:24;;;;;;;6.18;2.15;;;;;;;;;;5060853;28;20017;-83
2022/05/28 02:11:59;;;;;;;4.10;1.90;;;;;;;;;;5073939;28;20033;-85
2022/05/28 02:14:43;;;;;;;13.20;2.33;;;;;;;;;;5064631;28;20107;-83
2022/05/28 02:17:20;;;;;;;8.93;2.50;;;;;;;;;;5053860;28;20036;-83
2022/05/28 02:20:08;;;;;;;5.43;1.95;;;;;;;;;;5068804;28;20024;-84
2022/05/28 02:22:42;;;;;;;7.05;1.88;;;;;;;;;;5073508;28;20100;-83
2022/05/28 02:25:14;;;;;;;4.57;2.00;;;;;;;;;;5058058;28;20024;-84
2022/05/28 02:27:41;;;;;;;10.68;2.35;;;;;;;;;;5060262;28;20044;-84
2022/05/28 02:30:08;;;;;;;6.63;2.58;;;;;;;;;;5075427;28;20028;-85
2022/05/28 02:32:34;;;;;;;4.38;1.80;;;;;;;;;;5073922;28;20581;-83
2022/05/28 02:34:59;;;;;;;10.18;2.10;;;;;;;;;;5074010;28;20060;-85
2022/05/28 02:37:26;;;;;;;7.75;1.88;;;;;;;;;;5072550;28;20024;-87
2022/05/28 02:39:52;;;;;;;7.00;1.77;;;;;;;;;;5073579;28;20025;-84
2022/05/28 02:42:17;;;;;;;9.70;2.38;;;;;;;;;;5073064;28;20031;-84
2022/05/28 02:44:43;;;;;;;8.25;2.00;;;;;;;;;;5065245;28;20461;-84
2022/05/28 02:47:09;;;;;;;6.70;1.83;;;;;;;;;;5055124;28;20028;-83
2022/05/28 02:49:35;;;;;;;9.15;2.20;;;;;;;;;;5073226;28;20020;-82
2022/05/28 02:52:05;;;;;;;9.25;2.00;;;;;;;;;;5054327;28;20056;-84
2022/05/28 02:54:31;;;;;;;6.35;2.40;;;;;;;;;;5064699;28;20039;-83
2022/05/28 02:56:57;;;;;;;5.75;1.88;;;;;;;;;;5072392;28;20047;-82
2022/05/28 02:59:22;;;;;;;13.00;2.67;;;;;;;;;;5072997;28;20100;-84
2022/05/28 03:01:49;;;;;;;9.93;2.15;;;;;;;;;;5072509;28;20029;-85
2022/05/28 03:04:14;;;;;;;7.18;1.95;;;;;;;;;;5076418;28;20424;-84
2022/05/28 03:06:39;;;;;;;13.20;2.28;;;;;;;;;;5058311;28;20537;-83
2022/05/28 03:09:06;;;;;;;5.55;1.80;;;;;;;;;;5074927;28;20020;-81
2022/05/28 03:11:34;;;;;;;5.65;1.50;;;;;;;;;;5076323;28;20032;-82
2022/05/28 03:14:00;;;;;;;7.82;2.03;;;;;;;;;;5070312;28;20489;-82
2022/05/28 03:16:25;;;;;;;9.57;2.50;;;;;;;;;;5056255;28;20068;-82
2022/05/28 03:18:51;;;;;;;8.88;2.20;;;;;;;;;;5056170;28;20028;-85
2022/05/28 03:21:16;;;;;;;10.65;2.60;;;;;;;;;;5056407;28;20087;-82
2022/05/28 03:23:47;;;;;;;6.68;1.67;;;;;;;;;;5046234;28;20481;-82
2022/05/28 03:26:15;;;;;;;9.05;1.95;;;;;;;;;;5064419;28;20020;-81
2022/05/28 03:28:41;;;;;;;9.55;2.20;;;;;;;;;;5069038;28;20062;-83
2022/05/28 03:31:06;;;;;;;7.75;1.98;;;;;;;;;;5067336;28;20099;-82
2022/05/28 03:33:31;;;;;;;9.38;2.10;;;;;;;;;;5064816;28;20028;-85
2022/05/28 03:35:57;;;;;;;11.35;2.30;;;;;;;;;;5055617;28;20337;-82
2022/05/28 03:38:22;;;;;;;7.38;1.95;;;;;;;;;;5055286;28;20028;-82
2022/05/28 03:40:47;;;;;;;7.03;1.70;;;;;;;;;;5065942;28;20074;-83
2022/05/28 03:43:13;;;;;;;7.07;1.77;;;;;;;;;;5066858;28;20073;-83
2022/05/28 03:45:38;;;;;;;7.63;2.22;;;;;;;;;;5063204;28;20060;-83
2022/05/28 03:48:07;;;;;;;7.78;1.80;;;;;;;;;;5055064;28;20113;-84
2022/05/28 03:50:32;;;;;;;10.70;1.95;;;;;;;;;;5055046;28;20475;-86
2022/05/28 03:52:58;;;;;;;6.30;2.08;;;;;;;;;;5054755;28;20051;-84
2022/05/28 03:55:23;;;;;;;11.50;2.30;;;;;;;;;;5071654;28;20082;-85
2022/05/28 03:57:48;;;;;;;4.90;1.90;;;;;;;;;;5038258;28;20027;-85
2022/05/28 04:00:15;;;;;;;11.55;2.38;;;;;;;;;;5037699;28;20013;-85
2022/05/28 04:02:41;;;;;;;7.38;1.90;;;;;;;;;;5056437;28;20040;-84
2022/05/28 04:05:07;;;;;;;7.47;2.30;;;;;;;;;;5055830;28;20029;-83
2022/05/28 04:07:32;;;;;;;5.70;1.90;;;;;;;;;;5055326;28;20032;-85
2022/05/28 04:09:57;;;;;;;6.55;1.77;;;;;;;;;;5041005;28;20493;-84
2022/05/28 04:12:23;;;;;;;6.43;1.67;;;;;;;;;;5074925;28;20112;-86
2022/05/28 04:14:49;;;;;;;8.73;2.45;;;;;;;;;;5053039;28;20112;-85
2022/05/28 04:17:15;;;;;;;9.05;2.20;;;;;;;;;;5055357;28;20055;-84
2022/05/28 04:19:40;;;;;;;2.75;1.60;;;;;;;;;;5058423;28;20030;-84
2022/05/28 04:22:06;;;;;;;5.57;1.90;;;;;;;;;;5068472;28;20036;-84
2022/05/28 04:24:32;;;;;;;11.80;2.15;;;;;;;;;;5074112;28;20096;-84
2022/05/28 04:26:57;;;;;;;8.98;1.90;;;;;;;;;;5075209;28;20041;-82
2022/05/28 04:29:23;;;;;;;9.52;2.00;;;;;;;;;;5075027;28;20095;-85
2022/05/28 04:31:48;;;;;;;11.10;1.90;;;;;;;;;;5075229;28;20039;-83
2022/05/28 04:34:14;;;;;;;6.05;2.22;;;;;;;;;;5070565;28;20078;-83
2022/05/28 04:36:39;;;;;;;5.43;2.10;;;;;;;;;;5066304;28;20124;-84
2022/05/28 04:39:04;;;;;;;7.03;1.83;;;;;;;;;;5075188;28;20052;-84
2022/05/28 04:41:30;;;;;;;8.30;2.13;;;;;;;;;;5074636;28;20021;-85
2022/05/28 04:43:55;;;;;;;7.47;2.03;;;;;;;;;;5069862;28;20532;-82
2022/05/28 04:46:21;;;;;;;7.68;1.83;;;;;;;;;;5071819;28;20032;-83
2022/05/28 04:48:46;;;;;;;5.07;1.77;;;;;;;;;;5056591;28;20086;-84
2022/05/28 04:51:12;;;;;;;7.68;2.20;;;;;;;;;;5074688;28;20029;-84
2022/05/28 04:53:38;;;;;;;8.70;1.98;;;;;;;;;;5066045;28;20107;-84
2022/05/28 04:56:04;;;;;;;7.88;2.30;;;;;;;;;;5060262;28;20059;-83
2022/05/28 04:58:29;;;;;;;9.70;1.80;;;;;;;;;;5055553;28;20386;-84
2022/05/28 05:00:55;;;;;;;9.32;2.35;;;;;;;;;;5056166;28;20021;-86
2022/05/28 05:03:21;;;;;;;6.93;2.03;;;;;;;;;;5054745;28;20032;-86
2022/05/28 05:05:47;;;;;;;9.25;2.00;;;;;;;;;;5055386;28;20037;-86
2022/05/28 05:08:12;;;;;;;12.90;2.10;;;;;;;;;;5038506;28;20498;-84
2022/05/28 05:10:38;;;;;;;11.55;2.67;;;;;;;;;;5065779;28;20020;-83
2022/05/28 05:13:04;;;;;;;5.68;2.00;;;;;;;;;;5069422;28;20013;-86
2022/05/28 05:15:29;;;;;;;7.70;2.20;;;;;;;;;;5079152;28;20475;-84
2022/05/28 05:17:55;;;;;;;6.40;2.03;;;;;;;;;;5036391;28;20025;-84
2022/05/28 05:20:20;;;;;;;10.95;2.00;;;;;;;;;;5054168;28;20028;-84
2022/05/28 05:22:46;;;;;;;6.68;1.90;;;;;;;;;;5035993;28;20033;-83
2022/05/28 05:25:13;;;;;;;7.85;2.00;;;;;;;;;;5069019;28;20021;-83
2022/05/28 05:27:39;;;;;;;9.57;2.25;;;;;;;;;;5073382;28;20021;-83
2022/05/28 05:30:06;;;;;;;8.20;2.10;;;;;;;;;;5073606;28;20028;-83
2022/05/28 05:32:31;;;;;;;10.93;2.55;;;;;;;;;;5073678;28;20047;-84
2022/05/28 05:34:56;;;;;;;7.40;2.33;;;;;;;;;;5069716;28;20032;-84
2022/05/28 05:37:22;;;;;;;8.93;2.08;;;;;;;;;;5063576;28;20028;-82
2022/05/28 05:39:47;;;;;;;6.57;1.90;;;;;;;;;;5052903;28;20040;-84
2022/05/28 05:42:13;;;;;;;6.57;2.05;;;;;;;;;;5062944;28;20111;-86
2022/05/28 05:44:39;;;;;;;7.78;2.60;;;;;;;;;;5051052;28;20048;-83
2022/05/28 05:47:06;;;;;;;8.98;1.88;;;;;;;;;;5077178;28;20043;-84
2022/05/28 05:49:31;;;;;;;7.97;2.00;;;;;;;;;;5076371;28;20115;-86
2022/05/28 05:51:56;;;;;;;10.45;2.20;;;;;;;;;;5060924;28;20056;-83
2022/05/28 05:54:25;;;;;;;7.68;1.60;;;;;;;;;;5046946;28;20020;-83
2022/05/28 05:56:52;;;;;;;4.97;1.20;;;;;;;;;;5053914;28;20036;-85
2022/05/28 05:59:17;;;;;;;8.98;2.20;;;;;;;;;;5053546;28;20025;-86
2022/05/28 06:01:43;;;;;;;4.20;1.40;;;;;;;;;;5053678;28;20032;-83
2022/05/28 06:04:08;;;;;;;4.55;1.52;;;;;;;;;;5063059;28;20017;-84
2022/05/28 06:06:34;;;;;;;4.95;1.77;;;;;;;;;;5072867;28;20846;-84
2022/05/28 06:09:00;;;;;;;7.20;1.60;;;;;;;;;;5074240;28;20112;-83
2022/05/28 06:11:25;;;;;;;9.23;1.75;;;;;;;;;;5046429;28;20079;-82
2022/05/28 06:13:50;;;;;;;3.83;1.42;;;;;;;;;;5061068;28;20025;-84
2022/05/28 06:16:17;;;;;;;6.30;1.90;;;;;;;;;;5069945;28;20398;-81
2022/05/28 06:18:43;;;;;;;7.32;1.70;;;;;;;;;;5073046;28;20016;-86
2022/05/28 06:21:08;;;;;;;3.38;1.50;;;;;;;;;;5070654;28;20032;-83
2022/05/28 06:23:34;;;;;;;6.50;1.70;;;;;;;;;;5053998;28;20115;-84
2022/05/28 06:26:03;;;;;;;9.75;1.90;;;;;;;;;;5055891;28;20375;-83
2022/05/28 06:28:28;;;;;;;2.35;1.20;;;;;;;;;;5037676;28;20032;-84
2022/05/28 06:30:59;;;;;;;4.30;1.95;;;;;;;;;;5038001;28;20029;-86
2022/05/28 06:33:24;;;;;;;3.47;1.50;;;;;;;;;;5055967;28;20102;-85
2022/05/28 06:35:58;;;;;;;5.68;1.80;;;;;;;;;;5056293;28;20017;-86
2022/05/28 06:38:23;;;;;;;6.78;1.80;;;;;;;;;;5051361;28;20646;-83
2022/05/28 06:40:49;;;;;;;5.95;1.50;;;;;;;;;;5057477;28;20107;-84
2022/05/28 06:43:14;;;;;;;6.40;1.75;;;;;;;;;;5068273;28;20367;-84
2022/05/28 06:45:40;;;;;;;4.50;1.38;;;;;;;;;;5069437;28;20028;-85
2022/05/28 06:48:06;;;;;;;3.75;1.45;;;;;;;;;;5058899;28;20044;-84
2022/05/28 06:53:15;;;;;;;6.22;1.55;;;;;;;;;;5078500;28;20130;-84
2022/05/28 06:55:41;;;;;;;5.75;1.58;;;;;;;;;;5076921;28;20028;-82
2022/05/28 06:58:07;;;;;;;6.97;1.98;;;;;;;;;;5069215;28;20023;-84
2022/05/28 07:00:34;;;;;;;3.17;1.75;;;;;;;;;;5059809;28;20384;-83
2022/05/28 07:02:59;;;;;;;9.20;2.00;;;;;;;;;;5075060;28;20021;-86
2022/05/28 07:05:25;;;;;;;5.45;1.77;;;;;;;;;;5076200;28;20024;-84
2022/05/28 07:07:51;;;;;;;4.47;1.58;;;;;;;;;;5047304;28;20075;-83
2022/05/28 07:10:16;;;;;;;9.63;1.88;;;;;;;;;;5063775;28;20072;-83
2022/05/28 07:12:41;;;;;;;6.18;1.75;;;;;;;;;;5077572;28;20017;-86
2022/05/28 07:15:08;;;;;;;4.28;1.35;;;;;;;;;;5069955;28;20078;-84
2022/05/28 07:17:34;;;;;;;4.65;1.55;;;;;;;;;;5078044;28;20033;-84
2022/05/28 07:19:59;;;;;;;5.20;1.30;;;;;;;;;;5060297;28;20086;-82
2022/05/28 07:22:25;;;;;;;8.18;1.65;;;;;;;;;;5074797;28;20382;-83
2022/05/28 07:24:50;;;;;;;4.55;1.60;;;;;;;;;;5050714;28;20107;-86
2022/05/28 07:27:17;;;;;;;6.40;1.63;;;;;;;;;;5077280;28;20017;-85
2022/05/28 07:29:43;;;;;;;6.88;1.77;;;;;;;;;;5076458;28;20021;-83
2022/05/28 07:32:08;;;;;;;8.80;1.80;;;;;;;;;;5076728;28;20055;-85
2022/05/28 07:34:34;;;;;;;6.65;1.50;;;;;;;;;;5069676;28;20554;-84
2022/05/28 07:36:59;;;;;;;3.65;1.38;;;;;;;;;;5056457;28;20049;-86
2022/05/28 07:39:25;;;;;;;4.85;1.27;;;;;;;;;;5038424;28;20021;-88
2022/05/28 07:41:50;;;;;;;4.53;1.45;;;;;;;;;;5044318;28;20052;-83
2022/05/28 07:44:16;;;;;;;6.35;1.40;;;;;;;;;;5064215;28;20028;-85
2022/05/28 07:46:41;;;;;;;2.53;1.38;;;;;;;;;;5038124;28;20084;-85
2022/05/28 07:49:07;;;;;;;4.78;1.63;;;;;;;;;;5056786;28;20470;-85
2022/05/28 07:51:36;;;;;;;4.57;1.42;;;;;;;;;;5038174;28;20020;-84
2022/05/28 07:54:03;;;;;;;6.07;2.05;;;;;;;;;;5073176;28;20017;-86
2022/05/28 07:56:28;;;;;;;4.65;1.33;;;;;;;;;;5077046;28;20020;-88
2022/05/28 07:58:58;;;;;;;4.85;1.50;;;;;;;;;;5058735;28;20020;-86
2022/05/28 08:01:31;;;;;;;4.05;1.15;;;;;;;;;;5053873;28;20038;-85
2022/05/28 08:04:00;;;;;;;4.90;1.08;;;;;;;;;;5062293;28;20020;-87
2022/05/28 08:06:26;;;;;;;4.88;1.30;;;;;;;;;;5063378;28;20025;-84
2022/05/28 08:08:52;;;;;;;4.88;1.08;;;;;;;;;;5059611;28;20033;-86
2022/05/28 08:11:18;;;;;;;4.47;1.60;;;;;;;;;;5052291;28;20055;-83
2022/05/28 08:13:44;;;;;;;3.63;1.63;;;;;;;;;;5049509;28;20107;-84
2022/05/28 08:16:09;;;;;;;4.30;1.25;;;;;;;;;;5057784;28;20082;-86
2022/05/28 08:18:37;;;;;;;5.40;1.50;;;;;;;;;;5064022;28;20028;-86
2022/05/28 08:23:46;;;;;;;6.05;1.58;;;;;;;;;;5076853;28;20055;-86
2022/05/28 08:26:14;;;;;;;3.85;1.08;;;;;;;;;;5073029;28;20467;-85
2022/05/28 08:28:40;;;;;;;2.13;1.10;;;;;;;;;;5057094;28;20021;-85
2022/05/28 08:31:06;;;;;;;5.85;1.42;;;;;;;;;;5039483;28;20025;-87
2022/05/28 08:33:32;;;;;;;4.70;1.42;;;;;;;;;;5057648;28;20433;-87
2022/05/28 08:35:59;;;;;;;4.60;1.40;;;;;;;;;;5039257;28;20032;-86
2022/05/28 08:38:25;;;;;;;3.20;1.25;;;;;;;;;;5057054;28;20025;-85
2022/05/28 08:41:13;;;;;;;5.25;1.48;;;;;;;;;;5038018;28;20474;-87
2022/05/28 08:43:46;;;;;;;3.33;1.45;;;;;;;;;;5075910;28;20020;-87
2022/05/28 08:46:14;;;;;;;4.28;1.50;;;;;;;;;;5075799;28;20040;-86
2022/05/28 08:48:47;;;;;;;4.47;1.33;;;;;;;;;;5055930;28;20032;-84
2022/05/28 08:51:23;;;;;;;5.63;1.85;;;;;;;;;;5057747;28;20029;-87
2022/05/28 08:53:58;;;;;;;9.18;1.80;;;;;;;;;;5064861;28;20082;-83
2022/05/28 08:56:26;;;;;;;6.40;1.50;;;;;;;;;;5057924;28;20024;-86
2022/05/28 08:59:06;;;;;;;5.75;1.30;;;;;;;;;;5076059;28;20043;-85
2022/05/28 09:01:35;;;;;;;4.25;1.42;;;;;;;;;;5038340;28;20025;-86
2022/05/28 09:04:06;;;;;;;4.72;1.20;;;;;;;;;;5037386;28;20467;-85
2022/05/28 09:06:35;;;;;;;7.28;1.23;;;;;;;;;;5071609;28;20020;-85
2022/05/28 09:09:00;;;;;;;5.50;1.13;;;;;;;;;;5064065;28;20043;-87
2022/05/28 09:11:50;;;;;;;2.92;1.20;;;;;;;;;;5040673;28;20056;-85
2022/05/28 09:14:26;;;;;;;4.57;1.15;;;;;;;;;;5056106;28;20033;-86
2022/05/28 09:16:54;;;;;;;4.50;1.33;;;;;;;;;;5056642;28;20028;-85
2022/05/28 09:19:31;;;;;;;6.40;1.63;;;;;;;;;;5040195;28;20035;-83
2022/05/28 09:21:56;;;;;;;3.53;1.17;;;;;;;;;;5060327;28;20028;-84
2022/05/28 09:24:28;;;;;;;4.82;1.77;;;;;;;;;;5056685;28;20031;-84
2022/05/28 09:26:53;;;;;;;9.82;2.08;;;;;;;;;;5074695;28;20035;-84
2022/05/28 09:29:42;;;;;;;5.50;1.70;;;;;;;;;;5075186;28;20024;-86
2022/05/28 09:32:32;;;;;;;1.65;0.73;;;;;;;;;;5018373;28;20059;-84
2022/05/28 09:35:02;;;;;;;3.92;0.85;;;;;;;;;;5069582;28;20021;-85
2022/05/28 09:37:42;;;;;;;3.00;0.98;;;;;;;;;;5038802;28;20393;-85
2022/05/28 09:40:21;;;;;;;3.83;1.10;;;;;;;;;;5075206;28;20505;-85
2022/05/28 09:43:02;;;;;;;8.98;1.17;;;;;;;;;;5063461;28;20040;-86
2022/05/28 09:45:45;;;;;;;4.38;1.20;;;;;;;;;;5054523;28;20025;-85
2022/05/28 09:48:19;;;;;;;4.82;1.13;;;;;;;;;;5037160;28;20049;-86
2022/05/28 09:50:44;;;;;;;1.95;0.82;;;;;;;;;;5036692;28;20099;-85
2022/05/28 09:56:10;;;;;;;5.97;1.50;;;;;;;;;;5068557;28;20026;-86
2022/05/28 09:58:39;;;;;;;2.92;1.23;;;;;;;;;;5074382;28;20039;-85
2022/05/28 10:01:24;;;;;;;5.60;1.63;;;;;;;;;;5075250;28;20077;-85
2022/05/28 10:06:57;;;;;;;6.10;1.40;;;;;;;;;;5075149;28;20065;-86
2022/05/28 10:09:26;;;;;;;4.15;1.00;;;;;;;;;;5056622;28;20028;-84
2022/05/28 10:12:22;;;;;;;6.10;1.80;;;;;;;;;;5057501;28;20037;-84
2022/05/28 10:14:58;;;;;;;3.05;0.82;;;;;;;;;;5071199;28;20031;-87
2022/05/28 10:17:27;;;;;;;8.13;1.15;;;;;;;;;;5078303;28;20048;-88
2022/05/28 10:19:55;;;;;;;5.47;1.33;;;;;;;;;;5066570;28;20013;-85
2022/05/28 10:22:22;;;;;;;4.05;1.25;;;;;;;;;;5049951;28;20042;-86
2022/05/28 10:24:54;;;;;;;3.67;1.20;;;;;;;;;;5060807;28;20040;-86
2022/05/28 10:27:47;;;;;;;6.10;1.40;;;;;;;;;;5059586;28;20043;-86
2022/05/28 10:30:45;;;;;;;5.25;1.20;;;;;;;;;;5080426;28;20096;-84
2022/05/28 10:33:18;;;;;;;4.63;1.33;;;;;;;;;;5018634;28;20037;-86
2022/05/28 10:35:45;;;;;;;3.65;1.08;;;;;;;;;;5058155;28;20017;-85
2022/05/28 10:38:10;;;;;;;5.10;1.27;;;;;;;;;;5062420;28;20025;-85
2022/05/28 10:40:47;;;;;;;3.58;1.00;;;;;;;;;;5069823;28;20035;-84
2022/05/28 10:43:32;;;;;;;5.78;1.13;;;;;;;;;;5079671;28;20085;-86
2022/05/28 10:46:21;;;;;;;4.07;1.20;;;;;;;;;;5060722;28;20051;-86
2022/05/28 10:49:25;;;;;;;4.43;1.10;;;;;;;;;;5079288;28;20055;-86
2022/05/28 10:52:18;;;;;;;4.40;1.10;;;;;;;;;;5061546;28;20016;-84
2022/05/28 10:55:14;;;;;;;5.25;1.45;;;;;;;;;;5063708;28;20035;-86
2022/05/28 10:58:16;;;;;;;3.17;1.17;;;;;;;;;;5077118;28;20033;-84
2022/05/28 11:00:53;;;;;;;2.35;1.08;;;;;;;;;;5077566;28;20104;-83
2022/05/28 11:03:30;;;;;;;2.88;1.23;;;;;;;;;;5077785;28;20107;-86
2022/05/28 11:06:00;;;;;;;1.77;0.90;;;;;;;;;;5060243;28;20059;-83
2022/05/28 11:08:45;;;;;;;5.65;1.52;;;;;;;;;;5077701;28;20020;-87
2022/05/28 11:11:33;;;;;;;8.10;1.25;;;;;;;;;;5077593;28;20031;-86
2022/05/28 11:14:21;;;;;;;6.30;1.33;;;;;;;;;;5057423;28;20158;-86
2022/05/28 11:16:55;;;;;;;2.83;1.48;;;;;;;;;;5039069;28;20479;-86
2022/05/28 11:19:34;;;;;;;4.93;1.42;;;;;;;;;;5039378;28;20025;-85
2022/05/28 11:22:06;;;;;;;7.78;1.27;;;;;;;;;;5062721;28;20094;-86
2022/05/28 11:24:47;;;;;;;4.18;1.25;;;;;;;;;;5055681;28;20031;-85
2022/05/28 11:27:37;;;;;;;2.08;1.02;;;;;;;;;;5046717;28;20024;-83
2022/05/28 11:30:17;;;;;;;6.32;1.20;;;;;;;;;;5064231;28;20017;-85
2022/05/28 11:33:03;;;;;;;2.00;1.38;;;;;;;;;;5076287;28;20517;-84
2022/05/28 11:35:35;;;;;;;6.38;1.40;;;;;;;;;;5051687;28;20028;-84
2022/05/28 11:38:12;;;;;;;4.07;1.30;;;;;;;;;;5072015;28;20054;-88
2022/05/28 11:41:03;;;;;;;6.18;1.35;;;;;;;;;;5068239;28;20178;-84
2022/05/28 11:43:41;;;;;;;2.70;1.10;;;;;;;;;;5068569;28;20032;-85
2022/05/28 11:46:30;;;;;;;5.63;2.33;;;;;;;;;;5077383;28;20025;-86
2022/05/28 11:52:33;;;;;;;3.67;1.13;;;;;;;;;;5057244;28;20086;-85
2022/05/28 11:55:08;;;;;;;5.00;1.27;;;;;;;;;;5057060;28;20507;-87
2022/05/28 11:57:40;;;;;;;6.32;1.10;;;;;;;;;;5039014;28;20036;-86
2022/05/28 12:00:09;;;;;;;5.38;1.35;;;;;;;;;;5038523;28;20028;-87
2022/05/28 12:02:41;;;;;;;3.47;1.17;;;;;;;;;;5056619;28;20513;-87
2022/05/28 12:05:38;;;;;;;4.80;1.30;;;;;;;;;;5038849;28;20505;-85
2022/05/28 12:08:05;;;;;;;4.75;1.08;;;;;;;;;;5038989;28;20059;-85
2022/05/28 12:10:48;;;;;;;4.57;1.67;;;;;;;;;;5039131;28;20079;-87
2022/05/28 12:13:34;;;;;;;1.50;0.93;;;;;;;;;;5063787;28;20036;-88
2022/05/28 12:16:17;;;;;;;3.67;1.08;;;;;;;;;;5047749;28;20683;-85
2022/05/28 12:19:06;;;;;;;2.25;0.85;;;;;;;;;;5055920;28;20025;-86
2022/05/28 12:21:34;;;;;;;5.55;1.35;;;;;;;;;;5050340;28;20025;-86
2022/05/28 12:24:07;;;;;;;4.88;1.55;;;;;;;;;;5065281;28;20024;-87
2022/05/28 12:29:39;;;;;;;5.88;1.23;;;;;;;;;;5055972;28;20039;-85
2022/05/28 12:32:19;;;;;;;4.82;1.25;;;;;;;;;;5058417;28;20048;-84
2022/05/28 12:35:22;;;;;;;4.22;1.30;;;;;;;;;;5063669;28;20094;-84
2022/05/28 12:37:58;;;;;;;5.10;1.90;;;;;;;;;;5055224;28;20021;-84
2022/05/28 12:40:45;;;;;;;3.20;1.23;;;;;;;;;;5062574;28;20099;-83
2022/05/28 12:43:16;;;;;;;3.75;1.23;;;;;;;;;;5060005;28;20049;-85
2022/05/28 12:45:49;;;;;;;3.97;1.35;;;;;;;;;;5047832;28;20032;-85
2022/05/28 12:48:19;;;;;;;4.03;1.17;;;;;;;;;;5050020;28;20074;-86
2022/05/28 12:51:01;;;;;;;3.97;1.40;;;;;;;;;;5053660;28;20059;-87
2022/05/28 12:53:29;;;;;;;4.38;1.40;;;;;;;;;;5068337;28;20047;-84
2022/05/28 12:56:06;;;;;;;5.28;1.20;;;;;;;;;;5068237;28;20709;-85
2022/05/28 12:58:33;;;;;;;5.80;1.25;;;;;;;;;;5047053;28;20021;-84
2022/05/28 13:01:19;;;;;;;3.08;1.33;;;;;;;;;;5071071;28;20046;-85
2022/05/28 13:03:45;;;;;;;7.03;1.25;;;;;;;;;;5058757;28;20039;-84
2022/05/28 13:06:33;;;;;;;2.70;1.00;;;;;;;;;;5066733;28;20103;-84
2022/05/28 13:09:11;;;;;;;4.50;1.08;;;;;;;;;;5054038;28;20104;-84
2022/05/28 13:11:45;;;;;;;5.00;0.98;;;;;;;;;;5072645;28;20108;-84
2022/05/28 13:14:28;;;;;;;3.08;1.30;;;;;;;;;;5058871;28;20086;-86
2022/05/28 13:17:12;;;;;;;3.28;1.15;;;;;;;;;;5036910;28;20025;-85
2022/05/28 13:19:41;;;;;;;6.75;1.35;;;;;;;;;;5038929;28;20017;-86
2022/05/28 13:22:20;;;;;;;4.18;1.00;;;;;;;;;;5068148;28;20041;-86
2022/05/28 13:25:18;;;;;;;6.13;1.33;;;;;;;;;;5037898;28;20055;-86
2022/05/28 13:28:04;;;;;;;1.13;0.70;;;;;;;;;;4968329;28;20063;-86
2022/05/28 13:30:36;;;;;;;3.25;0.80;;;;;;;;;;5056540;28;20027;-86
2022/05/28 13:33:08;;;;;;;3.00;0.80;;;;;;;;;;5060584;28;20021;-86
2022/05/28 13:35:43;;;;;;;4.00;0.90;;;;;;;;;;5055243;28;20494;-86
2022/05/28 13:38:09;;;;;;;3.78;0.85;;;;;;;;;;5043963;28;20040;-86
2022/05/28 13:40:38;;;;;;;5.85;1.17;;;;;;;;;;5046831;28;20023;-87
2022/05/28 13:43:07;;;;;;;2.92;1.15;;;;;;;;;;5077465;28;20063;-83
2022/05/28 13:45:39;;;;;;;3.00;1.00;;;;;;;;;;5068590;28;20104;-85
2022/05/28 13:48:11;;;;;;;6.30;1.23;;;;;;;;;;5040452;28;20120;-84
2022/05/28 13:50:40;;;;;;;4.18;1.10;;;;;;;;;;5066523;28;20020;-85
2022/05/28 13:53:07;;;;;;;3.90;1.15;;;;;;;;;;5071669;28;20016;-84
2022/05/28 13:55:39;;;;;;;3.22;0.93;;;;;;;;;;5047173;28;20474;-88
2022/05/28 13:58:17;;;;;;;2.83;0.75;;;;;;;;;;5058724;28;20025;-86
2022/05/28 14:00:50;;;;;;;2.55;0.85;;;;;;;;;;5063716;28;20017;-84
2022/05/28 14:03:27;;;;;;;4.43;1.17;;;;;;;;;;5037152;28;20032;-85
2022/05/28 14:06:03;;;;;;;3.80;0.88;;;;;;;;;;5068217;28;20390;-85
2022/05/28 14:08:41;;;;;;;5.45;0.80;;;;;;;;;;5072014;28;20032;-87
2022/05/28 14:11:25;;;;;;;3.28;0.90;;;;;;;;;;5042769;28;20109;-85
2022/05/28 14:13:57;;;;;;;5.82;1.02;;;;;;;;;;5069565;28;20020;-85
2022/05/28 14:16:31;;;;;;;;;;;;;;;;;;5048320;28;20036;-84
2022/05/28 14:19:00;;;;;;;3.13;0.93;;;;;;;;;;5060784;28;20421;-85
2022/05/28 14:21:56;;;;;;;1.73;0.80;;;;;;;;;;5048488;28;20055;-84
2022/05/28 14:24:33;;;;;;;3.53;1.25;;;;;;;;;;5055956;28;20024;-84
2022/05/28 14:27:02;;;;;;;5.18;0.85;;;;;;;;;;5057707;28;20478;-84
2022/05/28 14:29:47;;;;;;;3.42;1.00;;;;;;;;;;5056569;28;20028;-84
2022/05/28 14:32:15;;;;;;;5.10;1.05;;;;;;;;;;5058275;28;20021;-85
2022/05/28 14:34:43;;;;;;;1.60;1.13;;;;;;;;;;5052562;28;20429;-85
2022/05/28 14:37:22;;;;;;;4.40;1.20;;;;;;;;;;5052198;28;20040;-86
2022/05/28 14:39:47;;;;;;;2.67;0.73;;;;;;;;;;5037945;28;20031;-85
2022/05/28 14:42:21;;;;;;;2.60;0.95;;;;;;;;;;5065446;28;20482;-86
2022/05/28 14:45:28;;;;;;;3.83;1.02;;;;;;;;;;5057503;28;20506;-84
2022/05/28 14:47:56;;;;;;;2.15;0.93;;;;;;;;;;5054053;28;20041;-85
2022/05/28 14:50:35;;;;;;;2.38;1.00;;;;;;;;;;5064367;28;20436;-85
2022/05/28 14:53:22;;;;;;;2.67;0.95;;;;;;;;;;5060822;28;20028;-86
2022/05/28 14:55:49;;;;;;;2.92;1.00;;;;;;;;;;5048587;28;20025;-85
2022/05/28 14:58:20;;;;;;;2.75;0.80;;;;;;;;;;5057738;28;20369;-84
2022/05/28 15:00:45;;;;;;;2.85;0.90;;;;;;;;;;5067389;28;20028;-87
2022/05/28 15:03:31;;;;;;;3.30;0.90;;;;;;;;;;5077098;28;20020;-86
2022/05/28 15:06:12;;;;;;;4.82;0.95;;;;;;;;;;5055880;28;20033;-87
2022/05/28 15:08:46;;;;;;;10.77;1.17;;;;;;;;;;5057853;28;20024;-86
2022/05/28 15:11:42;;;;;;;1.60;0.82;;;;;;;;;;5078450;28;20122;-85
2022/05/28 15:14:23;;;;;;;1.70;0.88;;;;;;;;;;5069892;28;20111;-85
2022/05/28 15:16:48;;;;;;;1.83;0.80;;;;;;;;;;5040764;28;20029;-85
2022/05/28 15:19:13;;;;;;;2.97;1.17;;;;;;;;;;5067721;28;20021;-86
2022/05/28 15:21:51;;;;;;;4.88;1.15;;;;;;;;;;5052035;28;20481;-85
2022/05/28 15:24:17;;;;;;;1.52;0.75;;;;;;;;;;5044233;28;20036;-85
2022/05/28 15:27:01;;;;;;;1.15;0.80;;;;;;;;;;5056037;28;20020;-86